createdAt,value
2023-02-24T00:00:38.813Z,994.51
2023-02-24T00:05:38.696Z,994.48
2023-02-24T00:10:38.619Z,994.42
2023-02-24T00:15:38.588Z,994.44
2023-02-24T00:20:38.496Z,994.36
2023-02-24T00:25:38.441Z,994.35
2023-02-24T00:30:38.361Z,994.37
2023-02-24T00:35:38.308Z,994.31
2023-02-24T00:40:38.234Z,994.36
2023-02-24T00:45:38.179Z,994.32
2023-02-24T00:50:38.109Z,994.30
2023-02-24T00:55:38.054Z,994.21
2023-02-24T01:00:37.982Z,994.14
2023-02-24T01:05:37.932Z,994.17
2023-02-24T01:10:37.846Z,994.09
2023-02-24T01:15:37.800Z,994.00
2023-02-24T01:20:37.714Z,994.00
2023-02-24T01:25:37.667Z,993.91
2023-02-24T01:30:37.585Z,993.86
2023-02-24T01:35:37.538Z,993.82
2023-02-24T01:40:37.458Z,993.79
2023-02-24T01:45:37.410Z,993.73
2023-02-24T01:50:37.339Z,993.64
2023-02-24T01:55:37.281Z,993.64
2023-02-24T02:00:37.220Z,993.56
2023-02-24T02:05:37.144Z,993.54
2023-02-24T02:10:37.082Z,993.52
2023-02-24T02:15:37.077Z,993.49
2023-02-24T02:20:36.968Z,993.42
2023-02-24T02:25:36.881Z,993.59
2023-02-24T02:30:36.839Z,993.55
2023-02-24T02:35:36.770Z,993.47
2023-02-24T02:40:36.677Z,993.45
2023-02-24T02:45:36.652Z,993.53
2023-02-24T02:50:36.552Z,993.54
2023-02-24T02:55:36.488Z,993.45
2023-02-24T03:00:36.410Z,993.42
2023-02-24T03:05:36.354Z,993.39
2023-02-24T03:10:36.290Z,993.28
2023-02-24T03:15:36.221Z,993.18
2023-02-24T03:20:36.160Z,993.10
2023-02-24T03:25:36.092Z,993.10
2023-02-24T03:30:36.089Z,993.07
2023-02-24T03:35:35.961Z,992.95
2023-02-24T03:40:35.938Z,992.98
2023-02-24T03:45:35.838Z,992.98
2023-02-24T03:50:35.757Z,992.97
2023-02-24T03:55:35.699Z,993.00
2023-02-24T04:00:35.634Z,992.94
2023-02-24T04:05:35.571Z,992.88
2023-02-24T04:10:35.492Z,992.84
2023-02-24T04:15:35.449Z,992.78
2023-02-24T04:20:35.362Z,992.74
2023-02-24T04:25:35.296Z,992.70
2023-02-24T04:30:35.409Z,992.67
2023-02-24T04:35:35.167Z,992.62
2023-02-24T04:40:35.108Z,992.56
2023-02-24T04:46:12.575Z,992.54
2023-02-24T04:50:34.990Z,992.51
2023-02-24T04:55:34.915Z,992.42
2023-02-24T05:00:34.853Z,992.37
2023-02-24T05:05:34.773Z,992.25
2023-02-24T05:10:34.716Z,992.20
2023-02-24T05:15:34.645Z,992.23
2023-02-24T05:20:34.584Z,992.15
2023-02-24T05:25:34.510Z,992.15
2023-02-24T05:30:34.508Z,992.16
2023-02-24T05:35:34.378Z,992.15
2023-02-24T05:40:34.316Z,992.04
2023-02-24T05:45:34.249Z,991.95
2023-02-24T05:50:34.183Z,991.95
2023-02-24T05:55:34.120Z,991.91
2023-02-24T06:00:34.054Z,991.87
2023-02-24T06:05:33.994Z,991.79
2023-02-24T06:10:33.925Z,991.83
2023-02-24T06:15:33.853Z,991.87
2023-02-24T06:20:33.788Z,991.83
2023-02-24T06:25:33.712Z,991.86
2023-02-24T06:30:33.744Z,991.83
2023-02-24T06:35:33.583Z,991.81
2023-02-24T06:40:33.526Z,991.85
2023-02-24T06:45:33.456Z,991.74
2023-02-24T06:50:33.394Z,991.68
2023-02-24T06:55:33.327Z,991.67
2023-02-24T07:00:33.269Z,991.65
2023-02-24T07:05:33.185Z,991.60
2023-02-24T07:10:33.145Z,991.62
2023-02-24T07:15:33.053Z,991.60
2023-02-24T07:20:32.990Z,991.60
2023-02-24T07:25:32.915Z,991.59
2023-02-24T07:30:33.013Z,991.47
2023-02-24T07:35:32.784Z,991.45
2023-02-24T07:40:32.730Z,991.30
2023-02-24T07:45:32.727Z,991.21
2023-02-24T07:50:32.605Z,991.24
2023-02-24T07:55:32.515Z,991.13
2023-02-24T08:00:32.462Z,991.05
2023-02-24T08:05:32.414Z,990.99
2023-02-24T08:10:32.328Z,990.84
2023-02-24T08:15:32.269Z,990.77
2023-02-24T08:20:32.184Z,990.61
2023-02-24T08:25:32.110Z,990.52
2023-02-24T08:30:32.159Z,990.43
2023-02-24T08:35:31.987Z,990.43
2023-02-24T08:40:31.940Z,990.37
2023-02-24T08:45:31.850Z,990.30
2023-02-24T08:50:31.793Z,990.26
2023-02-24T08:55:31.736Z,990.10
2023-02-24T09:00:31.712Z,989.93
2023-02-24T09:05:31.595Z,989.75
2023-02-24T09:10:31.557Z,989.58
2023-02-24T09:15:31.463Z,989.48
2023-02-24T09:20:31.424Z,989.46
2023-02-24T09:25:31.331Z,989.40
2023-02-24T09:30:31.347Z,989.19
2023-02-24T09:35:31.202Z,989.12
2023-02-24T09:40:31.157Z,989.05
2023-02-24T09:45:31.175Z,988.97
2023-02-24T09:50:55.428Z,988.89
2023-02-24T09:55:32.021Z,988.79
2023-02-24T10:00:30.891Z,988.72
2023-02-24T10:05:30.806Z,988.64
2023-02-24T10:10:30.784Z,988.54
2023-02-24T10:15:30.675Z,988.40
2023-02-24T10:20:30.648Z,988.22
2023-02-24T10:25:30.546Z,988.16
2023-02-24T10:30:30.606Z,987.95
2023-02-24T10:35:30.412Z,987.94
2023-02-24T10:40:30.353Z,987.82
2023-02-24T10:45:34.835Z,987.81
2023-02-24T10:50:32.304Z,987.71
2023-02-24T10:55:30.154Z,987.70
2023-02-24T11:00:30.102Z,987.62
2023-02-24T11:05:30.013Z,987.46
2023-02-24T11:10:29.998Z,987.36
2023-02-24T11:15:29.899Z,987.27
2023-02-24T11:20:46.456Z,987.20
2023-02-24T11:25:30.788Z,987.14
2023-02-24T11:30:29.803Z,987.07
2023-02-24T11:35:29.617Z,986.97
2023-02-24T11:40:29.566Z,986.84
2023-02-24T11:45:29.493Z,986.78
2023-02-24T11:50:29.436Z,986.69
2023-02-24T11:55:29.358Z,986.65
2023-02-24T12:00:29.318Z,986.54
2023-02-24T12:05:29.288Z,986.42
2023-02-24T12:10:29.172Z,986.36
2023-02-24T12:15:29.095Z,986.25
2023-02-24T12:20:29.040Z,986.23
2023-02-24T12:25:28.964Z,986.13
2023-02-24T12:30:28.951Z,986.09
2023-02-24T12:35:28.830Z,986.01
2023-02-24T12:40:28.777Z,985.97
2023-02-24T12:45:28.711Z,985.88
2023-02-24T12:50:28.634Z,985.80
2023-02-24T12:55:28.564Z,985.73
2023-02-24T13:00:28.502Z,985.61
2023-02-24T13:05:28.436Z,985.51
2023-02-24T13:10:28.374Z,985.50
2023-02-24T13:15:28.309Z,985.48
2023-02-24T13:20:28.238Z,985.38
2023-02-24T13:25:28.173Z,985.37
2023-02-24T13:30:28.140Z,985.27
2023-02-24T13:35:28.140Z,985.23
2023-02-24T13:40:27.998Z,985.28
2023-02-24T13:45:27.905Z,985.23
2023-02-24T13:50:27.849Z,985.18
2023-02-24T13:55:27.778Z,985.15
2023-02-24T14:00:27.720Z,985.21
2023-02-24T14:05:27.648Z,985.14
2023-02-24T14:10:27.618Z,985.06
2023-02-24T14:15:27.556Z,984.98
2023-02-24T14:20:27.459Z,984.96
2023-02-24T14:25:27.406Z,984.91
2023-02-24T14:30:27.349Z,984.88
2023-02-24T14:35:27.471Z,984.85
2023-02-24T14:40:27.208Z,984.82
2023-02-24T14:45:27.143Z,984.69
2023-02-24T14:50:27.092Z,984.66
2023-02-24T14:55:27.006Z,984.61
2023-02-24T15:00:26.957Z,984.52
2023-02-24T15:05:26.877Z,984.38
2023-02-24T15:10:26.806Z,984.32
2023-02-24T15:15:26.734Z,984.28
2023-02-24T15:20:26.682Z,984.14
2023-02-24T15:25:37.127Z,984.15
2023-02-24T15:30:27.583Z,984.16
2023-02-24T15:35:26.466Z,984.11
2023-02-24T15:40:26.423Z,984.11
2023-02-24T15:45:26.367Z,984.05
2023-02-24T15:50:26.276Z,983.95
2023-02-24T15:55:26.215Z,983.97
2023-02-24T16:00:26.165Z,983.94
2023-02-24T16:05:26.086Z,983.79
2023-02-24T16:10:26.020Z,983.78
2023-02-24T16:15:25.960Z,983.77
2023-02-24T16:20:25.876Z,983.71
2023-02-24T16:25:25.801Z,983.56
2023-02-24T16:30:25.851Z,983.57
2023-02-24T16:35:25.675Z,983.52
2023-02-24T16:40:25.613Z,983.43
2023-02-24T16:45:25.542Z,983.47
2023-02-24T16:50:25.485Z,983.40
2023-02-24T16:55:25.412Z,983.34
2023-02-24T17:00:25.356Z,983.31
2023-02-24T17:05:25.333Z,983.49
2023-02-24T17:10:25.245Z,983.44
2023-02-24T17:15:25.167Z,983.45
2023-02-24T17:20:25.098Z,983.42
2023-02-24T17:25:25.140Z,983.40
2023-02-24T17:30:24.969Z,983.34
2023-02-24T17:35:24.903Z,983.31
2023-02-24T17:40:24.843Z,983.28
2023-02-24T17:45:24.759Z,983.29
2023-02-24T17:50:24.714Z,983.24
2023-02-24T17:55:24.629Z,983.20
2023-02-24T18:00:24.583Z,983.19
2023-02-24T18:05:24.495Z,983.21
2023-02-24T18:10:24.444Z,983.10
2023-02-24T18:15:24.362Z,983.04
2023-02-24T18:20:24.321Z,982.95
2023-02-24T18:25:24.236Z,982.84
2023-02-24T18:30:24.179Z,982.71
2023-02-24T18:35:24.112Z,982.75
2023-02-24T18:40:24.064Z,982.71
2023-02-24T18:45:23.987Z,982.72
2023-02-24T18:50:23.928Z,982.66
2023-02-24T18:55:23.859Z,982.68
2023-02-24T19:00:23.863Z,982.66
2023-02-24T19:05:24.949Z,982.61
2023-02-24T19:10:23.681Z,982.59
2023-02-24T19:15:23.805Z,982.56
2023-02-24T19:20:23.856Z,982.49
2023-02-24T19:25:23.470Z,982.45
2023-02-24T19:30:23.427Z,982.38
2023-02-24T19:35:23.338Z,982.23
2023-02-24T19:40:23.283Z,982.15
2023-02-24T19:45:23.208Z,982.16
2023-02-24T19:50:23.153Z,982.16
2023-02-24T19:55:23.138Z,982.11
2023-02-24T20:00:23.037Z,982.08
2023-02-24T20:05:22.957Z,982.11
2023-02-24T20:10:22.904Z,982.16
2023-02-24T20:15:22.872Z,982.11
2023-02-24T20:20:22.950Z,981.99
2023-02-24T20:25:22.723Z,981.95
2023-02-24T20:30:22.642Z,982.02
2023-02-24T20:35:22.704Z,982.00
2023-02-24T20:40:22.514Z,981.95
2023-02-24T20:45:22.445Z,981.93
2023-02-24T20:50:22.388Z,981.87
2023-02-24T20:55:22.320Z,981.91
2023-02-24T21:00:22.277Z,981.92
2023-02-24T21:05:22.185Z,981.83
2023-02-24T21:10:22.141Z,981.80
2023-02-24T21:15:22.063Z,981.72
2023-02-24T21:20:22.038Z,981.64
2023-02-24T21:25:21.998Z,981.65
2023-02-24T21:30:21.876Z,981.64
2023-02-24T21:35:21.798Z,981.66
2023-02-24T21:40:21.736Z,981.63
2023-02-24T21:45:21.668Z,981.62
2023-02-24T21:50:21.610Z,981.62
2023-02-24T21:55:21.537Z,981.65
2023-02-24T22:00:21.485Z,981.61
2023-02-24T22:05:21.407Z,981.66
2023-02-24T22:10:21.350Z,981.67
2023-02-24T22:15:21.280Z,981.63
2023-02-24T22:20:21.230Z,981.58
2023-02-24T22:25:21.149Z,981.66
2023-02-24T22:30:21.105Z,981.64
2023-02-24T22:35:21.028Z,981.63
2023-02-24T22:40:20.983Z,981.58
2023-02-24T22:45:20.897Z,981.58
2023-02-24T22:50:20.845Z,981.60
2023-02-24T22:55:20.765Z,981.63
2023-02-24T23:00:20.720Z,981.60
2023-02-24T23:05:20.644Z,981.54
2023-02-24T23:10:20.598Z,981.48
2023-02-24T23:15:20.520Z,981.44
2023-02-24T23:20:20.460Z,981.53
2023-02-24T23:25:20.385Z,981.55
2023-02-24T23:30:20.418Z,981.55
2023-02-24T23:35:20.355Z,981.52
2023-02-24T23:40:20.344Z,981.56
2023-02-24T23:45:20.371Z,981.63
2023-02-24T23:50:20.373Z,981.53
2023-02-24T23:55:20.443Z,981.49
